sensor_id;sensor_type;location;lat;lon;timestamp;temperature;humidity
12761;DHT22;6444;49.742;6.114;2022-12-18T00:01:20;-6.40;99.90
12761;DHT22;6444;49.742;6.114;2022-12-18T00:03:46;-5.90;99.90
12761;DHT22;6444;49.742;6.114;2022-12-18T00:06:12;-5.60;99.90
12761;DHT22;6444;49.742;6.114;2022-12-18T00:08:39;-5.40;99.90
12761;DHT22;6444;49.742;6.114;2022-12-18T00:11:06;-5.40;99.90
12761;DHT22;6444;49.742;6.114;2022-12-18T00:13:32;-5.30;99.90
12761;DHT22;6444;49.742;6.114;2022-12-18T00:16:06;-5.30;99.90
12761;DHT22;6444;49.742;6.114;2022-12-18T00:18:31;-5.30;99.90
12761;DHT22;6444;49.742;6.114;2022-12-18T00:21:01;-5.70;99.90
12761;DHT22;6444;49.742;6.114;2022-12-18T00:23:25;-5.90;99.90
12761;DHT22;6444;49.742;6.114;2022-12-18T00:25:51;-5.60;99.90
12761;DHT22;6444;49.742;6.114;2022-12-18T00:28:18;-5.50;99.90
12761;DHT22;6444;49.742;6.114;2022-12-18T00:30:45;-5.70;99.90
12761;DHT22;6444;49.742;6.114;2022-12-18T00:33:12;-5.50;99.90
12761;DHT22;6444;49.742;6.114;2022-12-18T00:35:39;-5.50;99.90
12761;DHT22;6444;49.742;6.114;2022-12-18T00:38:05;-5.40;99.90
12761;DHT22;6444;49.742;6.114;2022-12-18T00:40:32;-5.30;99.90
12761;DHT22;6444;49.742;6.114;2022-12-18T00:42:58;-5.20;99.90
12761;DHT22;6444;49.742;6.114;2022-12-18T00:45:29;-5.40;99.90
12761;DHT22;6444;49.742;6.114;2022-12-18T00:47:54;-5.60;99.90
12761;DHT22;6444;49.742;6.114;2022-12-18T00:50:22;-5.60;99.90
12761;DHT22;6444;49.742;6.114;2022-12-18T00:52:48;-5.70;99.90
12761;DHT22;6444;49.742;6.114;2022-12-18T00:55:14;-6.20;99.90
12761;DHT22;6444;49.742;6.114;2022-12-18T00:57:41;-6.00;99.90
12761;DHT22;6444;49.742;6.114;2022-12-18T01:00:08;-5.90;99.90
12761;DHT22;6444;49.742;6.114;2022-12-18T01:02:34;-5.50;99.90
12761;DHT22;6444;49.742;6.114;2022-12-18T01:05:01;-5.30;99.90
12761;DHT22;6444;49.742;6.114;2022-12-18T01:07:28;-5.30;99.90
12761;DHT22;6444;49.742;6.114;2022-12-18T01:09:54;-5.40;99.90
12761;DHT22;6444;49.742;6.114;2022-12-18T01:12:21;-5.60;99.90
12761;DHT22;6444;49.742;6.114;2022-12-18T01:14:47;-6.00;99.90
12761;DHT22;6444;49.742;6.114;2022-12-18T01:17:14;-6.40;99.90
12761;DHT22;6444;49.742;6.114;2022-12-18T01:19:41;-6.20;99.90
12761;DHT22;6444;49.742;6.114;2022-12-18T01:22:07;-6.10;99.90
12761;DHT22;6444;49.742;6.114;2022-12-18T01:24:34;-6.30;99.90
12761;DHT22;6444;49.742;6.114;2022-12-18T01:27:01;-7.00;99.90
12761;DHT22;6444;49.742;6.114;2022-12-18T01:29:27;-6.90;99.90
12761;DHT22;6444;49.742;6.114;2022-12-18T01:31:59;-6.60;99.90
12761;DHT22;6444;49.742;6.114;2022-12-18T01:34:26;-6.10;99.90
12761;DHT22;6444;49.742;6.114;2022-12-18T01:36:52;-5.80;99.90
12761;DHT22;6444;49.742;6.114;2022-12-18T01:39:19;-6.00;99.90
12761;DHT22;6444;49.742;6.114;2022-12-18T01:41:46;-5.80;99.90
12761;DHT22;6444;49.742;6.114;2022-12-18T01:44:56;-6.80;99.90
12761;DHT22;6444;49.742;6.114;2022-12-18T01:49:50;-7.20;99.90
12761;DHT22;6444;49.742;6.114;2022-12-18T01:52:17;-6.60;99.90
12761;DHT22;6444;49.742;6.114;2022-12-18T01:54:44;-6.20;99.90
12761;DHT22;6444;49.742;6.114;2022-12-18T01:57:10;-6.40;99.90
12761;DHT22;6444;49.742;6.114;2022-12-18T01:59:37;-6.40;99.90
12761;DHT22;6444;49.742;6.114;2022-12-18T02:02:04;-6.10;99.90
12761;DHT22;6444;49.742;6.114;2022-12-18T02:04:30;-5.90;99.90
12761;DHT22;6444;49.742;6.114;2022-12-18T02:09:33;-5.80;99.90
12761;DHT22;6444;49.742;6.114;2022-12-18T02:14:58;-5.60;99.90
12761;DHT22;6444;49.742;6.114;2022-12-18T02:17:23;-6.10;99.90
12761;DHT22;6444;49.742;6.114;2022-12-18T02:22:40;-6.10;99.90
12761;DHT22;6444;49.742;6.114;2022-12-18T02:27:48;-5.90;99.90
12761;DHT22;6444;49.742;6.114;2022-12-18T02:30:15;-6.10;99.90
12761;DHT22;6444;49.742;6.114;2022-12-18T02:32:43;-6.10;99.90
12761;DHT22;6444;49.742;6.114;2022-12-18T02:35:11;-6.10;99.90
12761;DHT22;6444;49.742;6.114;2022-12-18T02:37:35;-6.00;99.90
12761;DHT22;6444;49.742;6.114;2022-12-18T02:40:02;-6.00;99.90
12761;DHT22;6444;49.742;6.114;2022-12-18T02:42:29;-5.90;99.90
12761;DHT22;6444;49.742;6.114;2022-12-18T02:44:55;-6.10;99.90
12761;DHT22;6444;49.742;6.114;2022-12-18T02:47:23;-6.20;99.90
12761;DHT22;6444;49.742;6.114;2022-12-18T02:57:37;-6.30;99.90
12761;DHT22;6444;49.742;6.114;2022-12-18T03:00:04;-7.50;99.90
12761;DHT22;6444;49.742;6.114;2022-12-18T03:02:35;-6.70;99.90
12761;DHT22;6444;49.742;6.114;2022-12-18T03:05:01;-6.70;99.90
12761;DHT22;6444;49.742;6.114;2022-12-18T03:07:33;-6.40;99.90
12761;DHT22;6444;49.742;6.114;2022-12-18T03:09:55;-6.50;99.90
12761;DHT22;6444;49.742;6.114;2022-12-18T03:12:28;-6.30;99.90
12761;DHT22;6444;49.742;6.114;2022-12-18T03:14:59;-6.20;99.90
12761;DHT22;6444;49.742;6.114;2022-12-18T03:17:22;-6.30;99.90
12761;DHT22;6444;49.742;6.114;2022-12-18T03:19:48;-6.30;99.90
12761;DHT22;6444;49.742;6.114;2022-12-18T03:22:15;-6.10;99.90
12761;DHT22;6444;49.742;6.114;2022-12-18T03:24:41;-6.90;99.90
12761;DHT22;6444;49.742;6.114;2022-12-18T03:27:12;-6.80;99.90
12761;DHT22;6444;49.742;6.114;2022-12-18T03:29:42;-6.40;99.90
12761;DHT22;6444;49.742;6.114;2022-12-18T03:32:11;-6.20;99.90
12761;DHT22;6444;49.742;6.114;2022-12-18T03:34:37;-6.20;99.90
12761;DHT22;6444;49.742;6.114;2022-12-18T03:37:04;-6.40;99.90
12761;DHT22;6444;49.742;6.114;2022-12-18T03:39:30;-6.10;99.90
12761;DHT22;6444;49.742;6.114;2022-12-18T03:44:35;-5.90;99.90
12761;DHT22;6444;49.742;6.114;2022-12-18T03:47:06;-6.10;99.90
12761;DHT22;6444;49.742;6.114;2022-12-18T03:49:35;-6.10;99.90
12761;DHT22;6444;49.742;6.114;2022-12-18T03:52:03;-6.20;99.90
12761;DHT22;6444;49.742;6.114;2022-12-18T03:54:28;-6.40;99.90
12761;DHT22;6444;49.742;6.114;2022-12-18T03:56:58;-6.70;99.90
12761;DHT22;6444;49.742;6.114;2022-12-18T03:59:21;-6.60;99.90
12761;DHT22;6444;49.742;6.114;2022-12-18T04:01:48;-6.30;99.90
12761;DHT22;6444;49.742;6.114;2022-12-18T04:04:14;-6.50;99.90
12761;DHT22;6444;49.742;6.114;2022-12-18T04:06:41;-6.80;99.90
12761;DHT22;6444;49.742;6.114;2022-12-18T04:09:08;-6.60;99.90
12761;DHT22;6444;49.742;6.114;2022-12-18T04:11:34;-6.40;99.90
12761;DHT22;6444;49.742;6.114;2022-12-18T04:14:01;-6.20;99.90
12761;DHT22;6444;49.742;6.114;2022-12-18T04:16:27;-6.10;99.90
12761;DHT22;6444;49.742;6.114;2022-12-18T04:18:54;-6.10;99.90
12761;DHT22;6444;49.742;6.114;2022-12-18T04:21:21;-6.30;99.90
12761;DHT22;6444;49.742;6.114;2022-12-18T04:23:47;-6.90;99.90
12761;DHT22;6444;49.742;6.114;2022-12-18T04:26:15;-7.00;99.90
12761;DHT22;6444;49.742;6.114;2022-12-18T04:28:41;-7.10;99.90
12761;DHT22;6444;49.742;6.114;2022-12-18T04:31:08;-7.10;99.90
12761;DHT22;6444;49.742;6.114;2022-12-18T04:33:35;-7.20;99.90
12761;DHT22;6444;49.742;6.114;2022-12-18T04:36:01;-6.80;99.90
12761;DHT22;6444;49.742;6.114;2022-12-18T04:38:29;-6.90;99.90
12761;DHT22;6444;49.742;6.114;2022-12-18T04:40:55;-6.90;99.90
12761;DHT22;6444;49.742;6.114;2022-12-18T04:43:22;-6.80;99.90
12761;DHT22;6444;49.742;6.114;2022-12-18T04:45:48;-6.60;99.90
12761;DHT22;6444;49.742;6.114;2022-12-18T04:48:15;-6.40;99.90
12761;DHT22;6444;49.742;6.114;2022-12-18T04:50:42;-6.40;99.90
12761;DHT22;6444;49.742;6.114;2022-12-18T04:53:08;-6.40;99.90
12761;DHT22;6444;49.742;6.114;2022-12-18T04:55:35;-6.50;99.90
12761;DHT22;6444;49.742;6.114;2022-12-18T04:58:02;-6.40;99.90
12761;DHT22;6444;49.742;6.114;2022-12-18T05:00:29;-6.50;99.90
12761;DHT22;6444;49.742;6.114;2022-12-18T05:03:00;-6.40;99.90
12761;DHT22;6444;49.742;6.114;2022-12-18T05:05:25;-6.50;99.90
12761;DHT22;6444;49.742;6.114;2022-12-18T05:07:52;-6.50;99.90
12761;DHT22;6444;49.742;6.114;2022-12-18T05:10:19;-6.80;99.90
12761;DHT22;6444;49.742;6.114;2022-12-18T05:12:46;-6.90;99.90
12761;DHT22;6444;49.742;6.114;2022-12-18T05:15:28;-7.00;99.90
12761;DHT22;6444;49.742;6.114;2022-12-18T05:17:54;-7.10;99.90
12761;DHT22;6444;49.742;6.114;2022-12-18T05:20:21;-7.00;99.90
12761;DHT22;6444;49.742;6.114;2022-12-18T05:22:47;-6.70;99.90
12761;DHT22;6444;49.742;6.114;2022-12-18T05:25:15;-6.40;99.90
12761;DHT22;6444;49.742;6.114;2022-12-18T05:27:41;-6.50;99.90
12761;DHT22;6444;49.742;6.114;2022-12-18T05:30:08;-6.40;99.90
12761;DHT22;6444;49.742;6.114;2022-12-18T05:32:35;-6.50;99.90
12761;DHT22;6444;49.742;6.114;2022-12-18T05:35:01;-6.90;99.90
12761;DHT22;6444;49.742;6.114;2022-12-18T05:37:28;-7.30;99.90
12761;DHT22;6444;49.742;6.114;2022-12-18T05:39:55;-6.90;99.90
12761;DHT22;6444;49.742;6.114;2022-12-18T05:42:21;-6.70;99.90
12761;DHT22;6444;49.742;6.114;2022-12-18T05:44:48;-6.60;99.90
12761;DHT22;6444;49.742;6.114;2022-12-18T05:47:14;-6.70;99.90
12761;DHT22;6444;49.742;6.114;2022-12-18T05:49:41;-6.50;99.90
12761;DHT22;6444;49.742;6.114;2022-12-18T05:52:08;-6.50;99.90
12761;DHT22;6444;49.742;6.114;2022-12-18T05:54:34;-6.50;99.90
12761;DHT22;6444;49.742;6.114;2022-12-18T05:57:01;-6.30;99.90
12761;DHT22;6444;49.742;6.114;2022-12-18T05:59:28;-6.30;99.90
12761;DHT22;6444;49.742;6.114;2022-12-18T06:01:54;-6.20;99.90
12761;DHT22;6444;49.742;6.114;2022-12-18T06:04:22;-6.20;99.90
12761;DHT22;6444;49.742;6.114;2022-12-18T06:06:48;-6.20;99.90
12761;DHT22;6444;49.742;6.114;2022-12-18T06:09:15;-6.30;99.90
12761;DHT22;6444;49.742;6.114;2022-12-18T06:11:42;-6.70;99.90
12761;DHT22;6444;49.742;6.114;2022-12-18T06:14:08;-6.60;99.90
12761;DHT22;6444;49.742;6.114;2022-12-18T06:16:36;-6.40;99.90
12761;DHT22;6444;49.742;6.114;2022-12-18T06:19:03;-6.50;99.90
12761;DHT22;6444;49.742;6.114;2022-12-18T06:21:29;-6.40;99.90
12761;DHT22;6444;49.742;6.114;2022-12-18T06:23:56;-6.40;99.90
12761;DHT22;6444;49.742;6.114;2022-12-18T06:26:22;-6.60;99.90
12761;DHT22;6444;49.742;6.114;2022-12-18T06:28:49;-6.50;99.90
12761;DHT22;6444;49.742;6.114;2022-12-18T06:31:15;-6.70;99.90
12761;DHT22;6444;49.742;6.114;2022-12-18T06:33:42;-6.80;99.90
12761;DHT22;6444;49.742;6.114;2022-12-18T06:36:10;-7.00;99.90
12761;DHT22;6444;49.742;6.114;2022-12-18T06:38:37;-7.10;99.90
12761;DHT22;6444;49.742;6.114;2022-12-18T06:43:35;-6.80;99.90
12761;DHT22;6444;49.742;6.114;2022-12-18T06:46:02;-6.90;99.90
12761;DHT22;6444;49.742;6.114;2022-12-18T06:48:29;-6.60;99.90
12761;DHT22;6444;49.742;6.114;2022-12-18T06:50:56;-6.60;99.90
12761;DHT22;6444;49.742;6.114;2022-12-18T06:53:23;-6.60;99.90
12761;DHT22;6444;49.742;6.114;2022-12-18T06:55:49;-6.90;99.90
12761;DHT22;6444;49.742;6.114;2022-12-18T06:58:16;-7.10;99.90
12761;DHT22;6444;49.742;6.114;2022-12-18T07:00:42;-7.60;99.90
12761;DHT22;6444;49.742;6.114;2022-12-18T07:03:09;-7.50;99.90
12761;DHT22;6444;49.742;6.114;2022-12-18T07:05:39;-7.10;99.90
12761;DHT22;6444;49.742;6.114;2022-12-18T07:08:02;-6.90;99.90
12761;DHT22;6444;49.742;6.114;2022-12-18T07:10:30;-6.60;99.90
12761;DHT22;6444;49.742;6.114;2022-12-18T07:12:56;-6.70;99.90
12761;DHT22;6444;49.742;6.114;2022-12-18T07:15:23;-6.60;99.90
12761;DHT22;6444;49.742;6.114;2022-12-18T07:17:50;-6.50;99.90
12761;DHT22;6444;49.742;6.114;2022-12-18T07:20:16;-6.30;99.90
12761;DHT22;6444;49.742;6.114;2022-12-18T07:22:44;-6.60;99.90
12761;DHT22;6444;49.742;6.114;2022-12-18T07:25:10;-6.70;99.90
12761;DHT22;6444;49.742;6.114;2022-12-18T07:27:37;-6.40;99.90
12761;DHT22;6444;49.742;6.114;2022-12-18T07:30:04;-6.40;99.90
12761;DHT22;6444;49.742;6.114;2022-12-18T07:32:30;-6.80;99.90
12761;DHT22;6444;49.742;6.114;2022-12-18T07:34:57;-6.90;99.90
12761;DHT22;6444;49.742;6.114;2022-12-18T07:37:23;-6.60;99.90
12761;DHT22;6444;49.742;6.114;2022-12-18T07:39:50;-6.40;99.90
12761;DHT22;6444;49.742;6.114;2022-12-18T07:42:17;-6.00;99.90
12761;DHT22;6444;49.742;6.114;2022-12-18T07:44:59;-6.00;99.90
12761;DHT22;6444;49.742;6.114;2022-12-18T07:47:25;-6.00;99.90
12761;DHT22;6444;49.742;6.114;2022-12-18T07:49:51;-5.90;99.90
12761;DHT22;6444;49.742;6.114;2022-12-18T07:52:18;-5.70;99.90
12761;DHT22;6444;49.742;6.114;2022-12-18T07:54:45;-6.20;99.90
12761;DHT22;6444;49.742;6.114;2022-12-18T07:57:14;-6.70;99.90
12761;DHT22;6444;49.742;6.114;2022-12-18T07:59:38;-6.60;99.90
12761;DHT22;6444;49.742;6.114;2022-12-18T08:02:05;-6.10;99.90
12761;DHT22;6444;49.742;6.114;2022-12-18T08:04:35;-6.10;99.90
12761;DHT22;6444;49.742;6.114;2022-12-18T08:07:01;-5.70;99.90
12761;DHT22;6444;49.742;6.114;2022-12-18T08:09:28;-5.40;99.90
12761;DHT22;6444;49.742;6.114;2022-12-18T08:11:55;-5.10;99.90
12761;DHT22;6444;49.742;6.114;2022-12-18T08:14:21;-5.00;99.90
12761;DHT22;6444;49.742;6.114;2022-12-18T08:16:48;-4.70;99.90
12761;DHT22;6444;49.742;6.114;2022-12-18T08:19:15;-4.60;99.90
12761;DHT22;6444;49.742;6.114;2022-12-18T08:21:42;-4.70;99.90
12761;DHT22;6444;49.742;6.114;2022-12-18T08:24:09;-4.50;99.90
12761;DHT22;6444;49.742;6.114;2022-12-18T08:26:35;-4.60;99.90
12761;DHT22;6444;49.742;6.114;2022-12-18T08:29:02;-4.90;99.90
12761;DHT22;6444;49.742;6.114;2022-12-18T08:31:30;-5.10;99.90
12761;DHT22;6444;49.742;6.114;2022-12-18T08:33:56;-5.20;99.90
12761;DHT22;6444;49.742;6.114;2022-12-18T08:36:23;-5.30;99.90
12761;DHT22;6444;49.742;6.114;2022-12-18T08:38:49;-5.30;99.90
12761;DHT22;6444;49.742;6.114;2022-12-18T08:41:16;-5.20;99.90
12761;DHT22;6444;49.742;6.114;2022-12-18T08:43:43;-5.00;99.90
12761;DHT22;6444;49.742;6.114;2022-12-18T08:46:31;-5.00;99.90
12761;DHT22;6444;49.742;6.114;2022-12-18T08:48:55;-4.40;99.90
12761;DHT22;6444;49.742;6.114;2022-12-18T08:51:22;-4.50;99.90
12761;DHT22;6444;49.742;6.114;2022-12-18T08:53:49;-4.30;99.90
12761;DHT22;6444;49.742;6.114;2022-12-18T08:56:15;-4.20;99.90
12761;DHT22;6444;49.742;6.114;2022-12-18T08:58:42;-4.90;99.90
12761;DHT22;6444;49.742;6.114;2022-12-18T09:01:09;-5.00;99.90
12761;DHT22;6444;49.742;6.114;2022-12-18T09:03:35;-5.00;99.90
12761;DHT22;6444;49.742;6.114;2022-12-18T09:06:02;-5.30;99.90
12761;DHT22;6444;49.742;6.114;2022-12-18T09:08:28;-4.80;99.90
12761;DHT22;6444;49.742;6.114;2022-12-18T09:10:55;-4.40;99.90
12761;DHT22;6444;49.742;6.114;2022-12-18T09:13:22;-4.00;99.90
12761;DHT22;6444;49.742;6.114;2022-12-18T09:15:49;-3.40;99.90
12761;DHT22;6444;49.742;6.114;2022-12-18T09:18:16;-2.70;99.90
12761;DHT22;6444;49.742;6.114;2022-12-18T09:20:42;-2.20;99.90
12761;DHT22;6444;49.742;6.114;2022-12-18T09:23:08;-2.00;99.90
12761;DHT22;6444;49.742;6.114;2022-12-18T09:25:35;-2.30;99.90
12761;DHT22;6444;49.742;6.114;2022-12-18T09:28:03;-1.90;99.90
12761;DHT22;6444;49.742;6.114;2022-12-18T09:30:29;-1.90;99.90
12761;DHT22;6444;49.742;6.114;2022-12-18T09:32:55;-2.10;99.90
12761;DHT22;6444;49.742;6.114;2022-12-18T09:35:22;-2.30;99.90
12761;DHT22;6444;49.742;6.114;2022-12-18T09:37:49;-1.90;99.90
12761;DHT22;6444;49.742;6.114;2022-12-18T09:40:20;-1.50;99.90
12761;DHT22;6444;49.742;6.114;2022-12-18T09:42:45;-1.20;99.90
12761;DHT22;6444;49.742;6.114;2022-12-18T09:45:14;-1.00;99.90
12761;DHT22;6444;49.742;6.114;2022-12-18T09:47:41;-1.20;99.90
12761;DHT22;6444;49.742;6.114;2022-12-18T09:50:30;-1.50;99.90
12761;DHT22;6444;49.742;6.114;2022-12-18T09:52:56;-1.20;99.90
12761;DHT22;6444;49.742;6.114;2022-12-18T09:55:32;-1.20;99.90
12761;DHT22;6444;49.742;6.114;2022-12-18T10:00:36;-1.60;99.90
12761;DHT22;6444;49.742;6.114;2022-12-18T10:03:12;-1.80;99.90
12761;DHT22;6444;49.742;6.114;2022-12-18T10:05:44;-2.00;99.90
12761;DHT22;6444;49.742;6.114;2022-12-18T10:10:53;-1.10;99.90
12761;DHT22;6444;49.742;6.114;2022-12-18T10:13:37;-1.10;99.90
12761;DHT22;6444;49.742;6.114;2022-12-18T10:16:08;-0.60;99.90
12761;DHT22;6444;49.742;6.114;2022-12-18T10:18:37;-0.40;99.90
12761;DHT22;6444;49.742;6.114;2022-12-18T10:21:03;-0.10;99.90
12761;DHT22;6444;49.742;6.114;2022-12-18T10:23:33;0.00;99.90
12761;DHT22;6444;49.742;6.114;2022-12-18T10:26:03;0.10;99.90
12761;DHT22;6444;49.742;6.114;2022-12-18T10:28:29;0.20;99.90
12761;DHT22;6444;49.742;6.114;2022-12-18T10:30:55;0.40;99.90
12761;DHT22;6444;49.742;6.114;2022-12-18T10:33:23;0.50;99.90
12761;DHT22;6444;49.742;6.114;2022-12-18T10:35:49;0.70;99.90
12761;DHT22;6444;49.742;6.114;2022-12-18T10:40:49;-0.10;99.90
12761;DHT22;6444;49.742;6.114;2022-12-18T10:43:15;-0.10;99.90
12761;DHT22;6444;49.742;6.114;2022-12-18T10:45:41;-0.70;99.90
12761;DHT22;6444;49.742;6.114;2022-12-18T10:48:21;-0.80;99.90
12761;DHT22;6444;49.742;6.114;2022-12-18T10:50:43;-0.30;99.90
12761;DHT22;6444;49.742;6.114;2022-12-18T10:53:13;-0.60;99.90
12761;DHT22;6444;49.742;6.114;2022-12-18T10:55:40;-0.20;99.90
12761;DHT22;6444;49.742;6.114;2022-12-18T11:01:10;1.00;99.90
12761;DHT22;6444;49.742;6.114;2022-12-18T11:03:40;0.40;99.90
12761;DHT22;6444;49.742;6.114;2022-12-18T11:06:07;-0.40;99.90
12761;DHT22;6444;49.742;6.114;2022-12-18T11:08:33;-0.50;99.90
12761;DHT22;6444;49.742;6.114;2022-12-18T11:10:59;0.00;99.90
12761;DHT22;6444;49.742;6.114;2022-12-18T11:13:26;0.50;99.90
12761;DHT22;6444;49.742;6.114;2022-12-18T11:15:52;0.50;99.90
12761;DHT22;6444;49.742;6.114;2022-12-18T11:20:50;1.50;99.90
12761;DHT22;6444;49.742;6.114;2022-12-18T11:23:17;1.60;99.90
12761;DHT22;6444;49.742;6.114;2022-12-18T11:25:50;1.50;99.90
12761;DHT22;6444;49.742;6.114;2022-12-18T11:28:39;1.90;99.90
12761;DHT22;6444;49.742;6.114;2022-12-18T11:31:21;2.10;99.90
12761;DHT22;6444;49.742;6.114;2022-12-18T11:34:02;2.20;99.90
12761;DHT22;6444;49.742;6.114;2022-12-18T11:36:33;1.20;99.90
12761;DHT22;6444;49.742;6.114;2022-12-18T11:38:54;-0.10;99.90
12761;DHT22;6444;49.742;6.114;2022-12-18T11:41:25;0.00;99.90
12761;DHT22;6444;49.742;6.114;2022-12-18T11:43:54;0.90;99.90
12761;DHT22;6444;49.742;6.114;2022-12-18T11:46:39;1.10;99.90
12761;DHT22;6444;49.742;6.114;2022-12-18T11:49:34;0.60;99.90
12761;DHT22;6444;49.742;6.114;2022-12-18T11:52:09;0.50;99.90
12761;DHT22;6444;49.742;6.114;2022-12-18T11:54:32;0.50;99.90
12761;DHT22;6444;49.742;6.114;2022-12-18T11:57:06;0.40;99.90
12761;DHT22;6444;49.742;6.114;2022-12-18T12:01:59;0.40;99.90
12761;DHT22;6444;49.742;6.114;2022-12-18T12:15:13;-0.10;99.90
12761;DHT22;6444;49.742;6.114;2022-12-18T12:17:42;-0.20;99.90
12761;DHT22;6444;49.742;6.114;2022-12-18T12:30:24;-0.30;99.90
12761;DHT22;6444;49.742;6.114;2022-12-18T12:32:58;-0.40;99.90
12761;DHT22;6444;49.742;6.114;2022-12-18T12:40:33;-0.20;99.90
12761;DHT22;6444;49.742;6.114;2022-12-18T12:43:07;0.00;99.90
12761;DHT22;6444;49.742;6.114;2022-12-18T12:45:46;0.10;99.90
12761;DHT22;6444;49.742;6.114;2022-12-18T12:51:21;0.00;99.90
12761;DHT22;6444;49.742;6.114;2022-12-18T12:53:49;-0.10;99.90
12761;DHT22;6444;49.742;6.114;2022-12-18T12:56:17;-0.40;99.90
12761;DHT22;6444;49.742;6.114;2022-12-18T13:01:41;-0.50;99.90
12761;DHT22;6444;49.742;6.114;2022-12-18T13:04:17;-0.50;99.90
12761;DHT22;6444;49.742;6.114;2022-12-18T13:06:46;-0.30;99.90
12761;DHT22;6444;49.742;6.114;2022-12-18T13:09:11;-0.40;99.90
12761;DHT22;6444;49.742;6.114;2022-12-18T13:11:39;-0.50;99.90
12761;DHT22;6444;49.742;6.114;2022-12-18T13:14:33;-0.30;99.90
12761;DHT22;6444;49.742;6.114;2022-12-18T13:19:50;-0.50;99.90
12761;DHT22;6444;49.742;6.114;2022-12-18T13:22:20;-0.60;99.90
12761;DHT22;6444;49.742;6.114;2022-12-18T13:24:46;-0.70;99.90
12761;DHT22;6444;49.742;6.114;2022-12-18T13:29:45;-0.50;99.90
12761;DHT22;6444;49.742;6.114;2022-12-18T13:32:23;-0.90;99.90
12761;DHT22;6444;49.742;6.114;2022-12-18T13:35:13;-0.90;99.90
12761;DHT22;6444;49.742;6.114;2022-12-18T13:39:58;-1.30;99.90
12761;DHT22;6444;49.742;6.114;2022-12-18T13:44:59;-1.10;99.90
12761;DHT22;6444;49.742;6.114;2022-12-18T13:49:53;-0.80;99.90
12761;DHT22;6444;49.742;6.114;2022-12-18T13:52:26;-0.60;99.90
12761;DHT22;6444;49.742;6.114;2022-12-18T13:54:53;-0.40;99.90
12761;DHT22;6444;49.742;6.114;2022-12-18T13:57:26;-0.60;99.90
12761;DHT22;6444;49.742;6.114;2022-12-18T13:59:51;-1.10;99.90
12761;DHT22;6444;49.742;6.114;2022-12-18T14:02:21;-1.40;99.90
12761;DHT22;6444;49.742;6.114;2022-12-18T14:04:45;-1.40;99.90
12761;DHT22;6444;49.742;6.114;2022-12-18T14:09:49;-0.10;99.90
12761;DHT22;6444;49.742;6.114;2022-12-18T14:12:24;-0.30;99.90
12761;DHT22;6444;49.742;6.114;2022-12-18T14:15:52;-0.80;99.90
12761;DHT22;6444;49.742;6.114;2022-12-18T14:17:34;-1.50;99.90
12761;DHT22;6444;49.742;6.114;2022-12-18T14:20:00;-1.50;99.90
12761;DHT22;6444;49.742;6.114;2022-12-18T14:22:27;-1.10;99.90
12761;DHT22;6444;49.742;6.114;2022-12-18T14:25:19;-1.60;99.90
12761;DHT22;6444;49.742;6.114;2022-12-18T14:27:36;-1.50;99.90
12761;DHT22;6444;49.742;6.114;2022-12-18T14:30:03;-1.50;99.90
12761;DHT22;6444;49.742;6.114;2022-12-18T14:32:28;-1.30;99.90
12761;DHT22;6444;49.742;6.114;2022-12-18T14:34:55;-1.40;99.90
12761;DHT22;6444;49.742;6.114;2022-12-18T14:37:23;-1.20;99.90
12761;DHT22;6444;49.742;6.114;2022-12-18T14:39:58;-1.50;99.90
12761;DHT22;6444;49.742;6.114;2022-12-18T14:42:24;-1.60;99.90
12761;DHT22;6444;49.742;6.114;2022-12-18T14:44:50;-1.90;99.90
12761;DHT22;6444;49.742;6.114;2022-12-18T14:47:17;-1.80;99.90
12761;DHT22;6444;49.742;6.114;2022-12-18T14:49:44;-1.70;99.90
12761;DHT22;6444;49.742;6.114;2022-12-18T14:52:27;-2.10;99.90
12761;DHT22;6444;49.742;6.114;2022-12-18T14:54:52;-1.90;99.90
12761;DHT22;6444;49.742;6.114;2022-12-18T14:59:48;-1.80;99.90
12761;DHT22;6444;49.742;6.114;2022-12-18T15:02:25;-1.70;99.90
12761;DHT22;6444;49.742;6.114;2022-12-18T15:05:15;-1.80;99.90
12761;DHT22;6444;49.742;6.114;2022-12-18T15:07:26;-1.60;99.90
12761;DHT22;6444;49.742;6.114;2022-12-18T15:12:35;-1.20;99.90
12761;DHT22;6444;49.742;6.114;2022-12-18T15:15:01;-1.70;99.90
12761;DHT22;6444;49.742;6.114;2022-12-18T15:17:27;-1.90;99.90
12761;DHT22;6444;49.742;6.114;2022-12-18T15:20:08;-1.60;99.90
12761;DHT22;6444;49.742;6.114;2022-12-18T15:22:22;-1.40;99.90
12761;DHT22;6444;49.742;6.114;2022-12-18T15:24:47;-2.10;99.90
12761;DHT22;6444;49.742;6.114;2022-12-18T15:27:27;-2.30;99.90
12761;DHT22;6444;49.742;6.114;2022-12-18T15:32:42;-1.90;99.90
12761;DHT22;6444;49.742;6.114;2022-12-18T15:35:15;-1.90;99.90
12761;DHT22;6444;49.742;6.114;2022-12-18T15:37:41;-1.70;99.90
12761;DHT22;6444;49.742;6.114;2022-12-18T15:40:08;-2.20;99.90
12761;DHT22;6444;49.742;6.114;2022-12-18T15:42:34;-2.20;99.90
12761;DHT22;6444;49.742;6.114;2022-12-18T15:45:19;-2.30;99.90
12761;DHT22;6444;49.742;6.114;2022-12-18T15:47:45;-2.10;99.90
12761;DHT22;6444;49.742;6.114;2022-12-18T15:50:12;-1.80;99.90
12761;DHT22;6444;49.742;6.114;2022-12-18T15:52:43;-1.40;99.90
12761;DHT22;6444;49.742;6.114;2022-12-18T15:55:14;-1.80;99.90
12761;DHT22;6444;49.742;6.114;2022-12-18T15:57:58;-2.00;99.90
12761;DHT22;6444;49.742;6.114;2022-12-18T16:00:25;-2.20;99.90
12761;DHT22;6444;49.742;6.114;2022-12-18T16:02:51;-2.60;99.90
12761;DHT22;6444;49.742;6.114;2022-12-18T16:05:18;-2.60;99.90
12761;DHT22;6444;49.742;6.114;2022-12-18T16:07:45;-2.30;99.90
12761;DHT22;6444;49.742;6.114;2022-12-18T16:10:11;-2.20;99.90
12761;DHT22;6444;49.742;6.114;2022-12-18T16:12:38;-2.20;99.90
12761;DHT22;6444;49.742;6.114;2022-12-18T16:15:05;-2.20;99.90
12761;DHT22;6444;49.742;6.114;2022-12-18T16:17:31;-1.90;99.90
12761;DHT22;6444;49.742;6.114;2022-12-18T16:19:58;-1.90;99.90
12761;DHT22;6444;49.742;6.114;2022-12-18T16:22:25;-1.90;99.90
12761;DHT22;6444;49.742;6.114;2022-12-18T16:24:52;-1.50;99.90
12761;DHT22;6444;49.742;6.114;2022-12-18T16:27:18;-1.60;99.90
12761;DHT22;6444;49.742;6.114;2022-12-18T16:29:45;-1.30;99.90
12761;DHT22;6444;49.742;6.114;2022-12-18T16:32:18;-0.90;99.90
12761;DHT22;6444;49.742;6.114;2022-12-18T16:34:44;-0.80;99.90
12761;DHT22;6444;49.742;6.114;2022-12-18T16:37:11;-1.30;99.90
12761;DHT22;6444;49.742;6.114;2022-12-18T16:39:37;-1.80;99.90
12761;DHT22;6444;49.742;6.114;2022-12-18T16:42:09;-2.00;99.90
12761;DHT22;6444;49.742;6.114;2022-12-18T16:44:30;-1.70;99.90
12761;DHT22;6444;49.742;6.114;2022-12-18T16:46:57;-1.60;99.90
12761;DHT22;6444;49.742;6.114;2022-12-18T16:49:23;-1.80;99.90
12761;DHT22;6444;49.742;6.114;2022-12-18T16:51:50;-1.60;99.90
12761;DHT22;6444;49.742;6.114;2022-12-18T16:54:16;-1.30;99.90
12761;DHT22;6444;49.742;6.114;2022-12-18T16:56:43;-1.70;99.90
12761;DHT22;6444;49.742;6.114;2022-12-18T16:59:10;-1.90;99.90
12761;DHT22;6444;49.742;6.114;2022-12-18T17:01:36;-1.90;99.90
12761;DHT22;6444;49.742;6.114;2022-12-18T17:04:04;-1.50;99.90
12761;DHT22;6444;49.742;6.114;2022-12-18T17:06:30;-1.30;99.90
12761;DHT22;6444;49.742;6.114;2022-12-18T17:08:57;-1.50;99.90
12761;DHT22;6444;49.742;6.114;2022-12-18T17:11:23;-1.60;99.90
12761;DHT22;6444;49.742;6.114;2022-12-18T17:13:50;-1.60;99.90
12761;DHT22;6444;49.742;6.114;2022-12-18T17:16:16;-1.30;99.90
12761;DHT22;6444;49.742;6.114;2022-12-18T17:18:43;-1.00;99.90
12761;DHT22;6444;49.742;6.114;2022-12-18T17:21:09;-0.90;99.90
12761;DHT22;6444;49.742;6.114;2022-12-18T17:23:36;-1.20;99.90
12761;DHT22;6444;49.742;6.114;2022-12-18T17:26:03;-1.20;99.90
12761;DHT22;6444;49.742;6.114;2022-12-18T17:28:29;-0.90;99.90
12761;DHT22;6444;49.742;6.114;2022-12-18T17:30:56;-1.00;99.90